sensor_id;sensor_type;location;lat;lon;timestamp;pressure;altitude;pressure_sealevel;temperature;humidity
18137;BME280;9194;42.632;23.298;2023-07-31T00:03:43;92314.00;;;19.03;100.00
18137;BME280;9194;42.632;23.298;2023-07-31T00:08:45;92313.47;;;18.77;100.00
18137;BME280;9194;42.632;23.298;2023-07-31T00:13:46;92317.13;;;18.81;100.00
18137;BME280;9194;42.632;23.298;2023-07-31T00:18:47;92310.97;;;18.91;100.00
18137;BME280;9194;42.632;23.298;2023-07-31T00:23:48;92299.16;;;18.83;100.00
18137;BME280;9194;42.632;23.298;2023-07-31T00:28:49;92302.00;;;18.92;100.00
18137;BME280;9194;42.632;23.298;2023-07-31T00:33:51;92289.94;;;19.09;100.00
18137;BME280;9194;42.632;23.298;2023-07-31T00:38:52;92277.47;;;18.91;100.00
18137;BME280;9194;42.632;23.298;2023-07-31T00:43:53;92263.78;;;18.89;100.00
18137;BME280;9194;42.632;23.298;2023-07-31T00:48:54;92272.75;;;18.88;100.00
18137;BME280;9194;42.632;23.298;2023-07-31T00:53:55;92284.31;;;18.92;100.00
18137;BME280;9194;42.632;23.298;2023-07-31T00:58:57;92277.22;;;18.87;100.00
18137;BME280;9194;42.632;23.298;2023-07-31T01:03:58;92277.53;;;18.86;100.00
18137;BME280;9194;42.632;23.298;2023-07-31T01:14:04;92270.88;;;18.65;100.00
18137;BME280;9194;42.632;23.298;2023-07-31T01:19:06;92263.69;;;18.70;100.00
18137;BME280;9194;42.632;23.298;2023-07-31T01:30:10;92271.50;;;18.52;100.00
18137;BME280;9194;42.632;23.298;2023-07-31T01:35:15;92267.34;;;18.40;100.00
18137;BME280;9194;42.632;23.298;2023-07-31T01:40:16;92272.03;;;18.48;100.00
18137;BME280;9194;42.632;23.298;2023-07-31T01:45:18;92258.19;;;18.67;100.00
18137;BME280;9194;42.632;23.298;2023-07-31T01:50:19;92260.31;;;18.65;100.00
18137;BME280;9194;42.632;23.298;2023-07-31T01:55:20;92264.25;;;18.67;100.00
18137;BME280;9194;42.632;23.298;2023-07-31T02:00:22;92277.81;;;18.56;100.00
18137;BME280;9194;42.632;23.298;2023-07-31T02:05:23;92267.78;;;18.58;100.00
18137;BME280;9194;42.632;23.298;2023-07-31T02:10:24;92267.63;;;18.73;100.00
18137;BME280;9194;42.632;23.298;2023-07-31T02:15:26;92277.00;;;18.84;100.00
18137;BME280;9194;42.632;23.298;2023-07-31T02:20:27;92285.00;;;19.03;100.00
18137;BME280;9194;42.632;23.298;2023-07-31T02:25:28;92283.09;;;19.08;100.00
18137;BME280;9194;42.632;23.298;2023-07-31T02:30:29;92286.97;;;18.92;100.00
18137;BME280;9194;42.632;23.298;2023-07-31T02:35:31;92284.31;;;18.92;100.00
18137;BME280;9194;42.632;23.298;2023-07-31T02:40:32;92285.31;;;18.96;100.00
18137;BME280;9194;42.632;23.298;2023-07-31T02:45:33;92271.28;;;19.24;100.00
18137;BME280;9194;42.632;23.298;2023-07-31T02:50:35;92285.22;;;19.54;100.00
18137;BME280;9194;42.632;23.298;2023-07-31T02:55:36;92295.16;;;19.62;100.00
18137;BME280;9194;42.632;23.298;2023-07-31T03:00:42;92304.53;;;19.73;100.00
18137;BME280;9194;42.632;23.298;2023-07-31T03:05:46;92306.59;;;19.52;100.00
18137;BME280;9194;42.632;23.298;2023-07-31T03:10:47;92306.16;;;19.45;100.00
18137;BME280;9194;42.632;23.298;2023-07-31T03:15:48;92304.75;;;19.53;100.00
18137;BME280;9194;42.632;23.298;2023-07-31T03:20:49;92313.50;;;19.72;100.00
18137;BME280;9194;42.632;23.298;2023-07-31T03:25:58;92321.44;;;19.72;100.00
18137;BME280;9194;42.632;23.298;2023-07-31T03:31:02;92321.56;;;19.62;100.00
18137;BME280;9194;42.632;23.298;2023-07-31T03:36:04;92324.28;;;19.94;100.00
18137;BME280;9194;42.632;23.298;2023-07-31T03:41:07;92328.28;;;19.73;100.00
18137;BME280;9194;42.632;23.298;2023-07-31T03:46:08;92333.78;;;19.77;100.00
18137;BME280;9194;42.632;23.298;2023-07-31T03:51:09;92334.91;;;19.71;100.00
18137;BME280;9194;42.632;23.298;2023-07-31T03:56:10;92345.47;;;19.71;100.00
18137;BME280;9194;42.632;23.298;2023-07-31T04:01:12;92344.63;;;19.75;100.00
18137;BME280;9194;42.632;23.298;2023-07-31T04:06:13;92342.22;;;19.79;100.00
18137;BME280;9194;42.632;23.298;2023-07-31T04:11:14;92345.16;;;20.15;100.00
18137;BME280;9194;42.632;23.298;2023-07-31T04:16:15;92349.31;;;20.02;100.00
18137;BME280;9194;42.632;23.298;2023-07-31T04:21:16;92353.72;;;20.06;100.00
18137;BME280;9194;42.632;23.298;2023-07-31T04:26:18;92355.38;;;20.02;100.00
18137;BME280;9194;42.632;23.298;2023-07-31T04:31:19;92354.28;;;20.22;100.00
18137;BME280;9194;42.632;23.298;2023-07-31T04:36:21;92352.25;;;20.19;100.00
18137;BME280;9194;42.632;23.298;2023-07-31T04:41:22;92347.78;;;20.71;100.00
18137;BME280;9194;42.632;23.298;2023-07-31T04:46:23;92353.03;;;20.89;100.00
18137;BME280;9194;42.632;23.298;2023-07-31T04:51:24;92354.44;;;20.31;100.00
18137;BME280;9194;42.632;23.298;2023-07-31T04:56:26;92356.06;;;20.32;100.00
18137;BME280;9194;42.632;23.298;2023-07-31T05:01:27;92334.59;;;20.52;100.00
18137;BME280;9194;42.632;23.298;2023-07-31T05:06:28;92328.44;;;21.03;100.00
18137;BME280;9194;42.632;23.298;2023-07-31T05:11:29;92333.75;;;21.49;100.00
18137;BME280;9194;42.632;23.298;2023-07-31T05:16:31;92336.97;;;21.59;100.00
18137;BME280;9194;42.632;23.298;2023-07-31T05:21:32;92334.00;;;21.88;100.00
18137;BME280;9194;42.632;23.298;2023-07-31T05:26:33;92339.19;;;21.80;100.00
18137;BME280;9194;42.632;23.298;2023-07-31T05:31:34;92329.78;;;21.73;100.00
18137;BME280;9194;42.632;23.298;2023-07-31T05:36:36;92337.81;;;22.09;100.00
18137;BME280;9194;42.632;23.298;2023-07-31T05:41:37;92343.09;;;22.23;100.00
18137;BME280;9194;42.632;23.298;2023-07-31T05:46:38;92330.50;;;22.87;100.00
18137;BME280;9194;42.632;23.298;2023-07-31T05:51:39;92333.69;;;22.39;100.00
18137;BME280;9194;42.632;23.298;2023-07-31T05:56:41;92330.19;;;22.88;97.54
18137;BME280;9194;42.632;23.298;2023-07-31T06:01:42;92343.03;;;23.26;93.34
18137;BME280;9194;42.632;23.298;2023-07-31T06:06:43;92345.13;;;23.68;86.95
18137;BME280;9194;42.632;23.298;2023-07-31T06:11:44;92349.22;;;23.74;86.97
18137;BME280;9194;42.632;23.298;2023-07-31T06:16:46;92348.72;;;23.64;88.61
18137;BME280;9194;42.632;23.298;2023-07-31T06:21:47;92346.00;;;23.55;93.80
18137;BME280;9194;42.632;23.298;2023-07-31T06:26:49;92341.41;;;23.78;86.36
18137;BME280;9194;42.632;23.298;2023-07-31T06:31:51;92341.41;;;23.78;84.17
18137;BME280;9194;42.632;23.298;2023-07-31T06:36:53;92336.16;;;24.12;81.48
18137;BME280;9194;42.632;23.298;2023-07-31T06:41:54;92346.94;;;23.99;86.76
18137;BME280;9194;42.632;23.298;2023-07-31T06:46:55;92331.25;;;23.10;83.47
18137;BME280;9194;42.632;23.298;2023-07-31T06:51:56;92337.28;;;23.32;87.07
18137;BME280;9194;42.632;23.298;2023-07-31T06:56:57;92350.28;;;23.43;85.85
18137;BME280;9194;42.632;23.298;2023-07-31T07:01:59;92354.94;;;23.28;90.09
18137;BME280;9194;42.632;23.298;2023-07-31T07:07:00;92348.22;;;23.00;86.29
18137;BME280;9194;42.632;23.298;2023-07-31T07:12:01;92343.44;;;23.11;85.05
18137;BME280;9194;42.632;23.298;2023-07-31T07:17:03;92337.22;;;23.46;81.75
18137;BME280;9194;42.632;23.298;2023-07-31T07:22:05;92340.16;;;23.84;82.63
18137;BME280;9194;42.632;23.298;2023-07-31T07:27:06;92347.72;;;23.99;78.07
18137;BME280;9194;42.632;23.298;2023-07-31T07:32:07;92336.56;;;23.80;79.82
18137;BME280;9194;42.632;23.298;2023-07-31T07:37:09;92339.56;;;23.87;78.39
18137;BME280;9194;42.632;23.298;2023-07-31T07:42:10;92354.09;;;23.90;77.66
18137;BME280;9194;42.632;23.298;2023-07-31T07:47:12;92350.47;;;24.51;75.37
18137;BME280;9194;42.632;23.298;2023-07-31T07:52:13;92359.50;;;24.24;77.80
18137;BME280;9194;42.632;23.298;2023-07-31T07:57:15;92361.66;;;24.05;76.25
18137;BME280;9194;42.632;23.298;2023-07-31T08:02:16;92362.53;;;24.40;76.04
18137;BME280;9194;42.632;23.298;2023-07-31T08:07:17;92366.44;;;24.51;78.07
18137;BME280;9194;42.632;23.298;2023-07-31T08:12:18;92361.47;;;24.01;76.51
18137;BME280;9194;42.632;23.298;2023-07-31T08:17:20;92363.34;;;23.92;81.29
18137;BME280;9194;42.632;23.298;2023-07-31T08:22:21;92360.78;;;23.70;78.41
18137;BME280;9194;42.632;23.298;2023-07-31T08:27:23;92356.25;;;24.36;75.55
18137;BME280;9194;42.632;23.298;2023-07-31T08:32:24;92363.59;;;24.47;71.79
18137;BME280;9194;42.632;23.298;2023-07-31T08:37:25;92372.84;;;24.50;71.32
18137;BME280;9194;42.632;23.298;2023-07-31T08:42:26;92365.97;;;25.01;68.17
18137;BME280;9194;42.632;23.298;2023-07-31T08:47:27;92360.75;;;25.30;63.73
18137;BME280;9194;42.632;23.298;2023-07-31T08:52:29;92362.94;;;25.28;65.02
18137;BME280;9194;42.632;23.298;2023-07-31T08:57:30;92377.88;;;24.51;71.30
18137;BME280;9194;42.632;23.298;2023-07-31T09:03:03;92382.59;;;23.98;78.83
18137;BME280;9194;42.632;23.298;2023-07-31T09:08:10;92371.69;;;24.17;72.37
18137;BME280;9194;42.632;23.298;2023-07-31T09:13:13;92371.44;;;24.78;70.18
18137;BME280;9194;42.632;23.298;2023-07-31T09:18:14;92371.25;;;24.40;69.09
18137;BME280;9194;42.632;23.298;2023-07-31T09:23:19;92370.34;;;24.28;73.34
18137;BME280;9194;42.632;23.298;2023-07-31T09:28:31;92351.38;;;25.15;66.17
18137;BME280;9194;42.632;23.298;2023-07-31T09:33:32;92349.88;;;25.61;68.84
18137;BME280;9194;42.632;23.298;2023-07-31T09:38:34;92354.84;;;24.99;70.19
18137;BME280;9194;42.632;23.298;2023-07-31T09:43:37;92349.69;;;24.68;66.72
18137;BME280;9194;42.632;23.298;2023-07-31T09:48:39;92337.91;;;25.20;68.07
18137;BME280;9194;42.632;23.298;2023-07-31T09:53:40;92325.81;;;25.69;65.51
18137;BME280;9194;42.632;23.298;2023-07-31T09:58:41;92323.31;;;26.32;62.71
18137;BME280;9194;42.632;23.298;2023-07-31T10:03:45;92323.75;;;26.75;58.47
18137;BME280;9194;42.632;23.298;2023-07-31T10:08:47;92324.28;;;27.22;57.11
18137;BME280;9194;42.632;23.298;2023-07-31T10:13:50;92330.97;;;26.75;57.82
18137;BME280;9194;42.632;23.298;2023-07-31T10:18:53;92320.97;;;26.72;57.59
18137;BME280;9194;42.632;23.298;2023-07-31T10:23:56;92321.16;;;26.46;58.03
18137;BME280;9194;42.632;23.298;2023-07-31T10:28:58;92319.66;;;26.78;56.01
18137;BME280;9194;42.632;23.298;2023-07-31T10:33:59;92311.19;;;27.09;54.23
18137;BME280;9194;42.632;23.298;2023-07-31T10:39:03;92301.88;;;27.15;54.63
18137;BME280;9194;42.632;23.298;2023-07-31T10:44:06;92310.13;;;27.22;53.02
18137;BME280;9194;42.632;23.298;2023-07-31T10:49:08;92306.50;;;26.73;55.46
18137;BME280;9194;42.632;23.298;2023-07-31T10:54:13;92305.56;;;27.22;54.52
18137;BME280;9194;42.632;23.298;2023-07-31T10:59:16;92303.97;;;26.55;55.58
18137;BME280;9194;42.632;23.298;2023-07-31T11:04:25;92291.72;;;26.96;55.02
18137;BME280;9194;42.632;23.298;2023-07-31T11:09:29;92280.19;;;27.28;53.05
18137;BME280;9194;42.632;23.298;2023-07-31T11:14:31;92287.84;;;26.85;51.11
18137;BME280;9194;42.632;23.298;2023-07-31T11:19:32;92289.28;;;26.49;50.87
18137;BME280;9194;42.632;23.298;2023-07-31T11:24:34;92293.88;;;25.90;53.77
18137;BME280;9194;42.632;23.298;2023-07-31T11:29:35;92283.34;;;26.23;52.64
18137;BME280;9194;42.632;23.298;2023-07-31T11:34:51;92279.69;;;26.48;52.47
18137;BME280;9194;42.632;23.298;2023-07-31T11:40:02;92282.22;;;26.98;51.32
18137;BME280;9194;42.632;23.298;2023-07-31T11:45:08;92277.84;;;27.39;49.93
18137;BME280;9194;42.632;23.298;2023-07-31T11:50:11;92271.59;;;26.78;52.21
18137;BME280;9194;42.632;23.298;2023-07-31T11:55:16;92268.69;;;26.50;54.54
18137;BME280;9194;42.632;23.298;2023-07-31T12:00:18;92268.75;;;26.41;51.80
18137;BME280;9194;42.632;23.298;2023-07-31T12:05:21;92273.84;;;26.34;54.01
18137;BME280;9194;42.632;23.298;2023-07-31T12:15:39;92252.97;;;27.14;51.76
18137;BME280;9194;42.632;23.298;2023-07-31T12:20:48;92251.50;;;26.92;52.97
18137;BME280;9194;42.632;23.298;2023-07-31T12:26:09;92253.91;;;26.52;54.71
18137;BME280;9194;42.632;23.298;2023-07-31T12:31:18;92245.72;;;27.03;52.84
18137;BME280;9194;42.632;23.298;2023-07-31T12:36:22;92246.00;;;27.46;52.70
18137;BME280;9194;42.632;23.298;2023-07-31T12:41:23;92259.69;;;27.45;52.06
18137;BME280;9194;42.632;23.298;2023-07-31T12:46:24;92253.53;;;26.95;51.39
18137;BME280;9194;42.632;23.298;2023-07-31T12:51:26;92248.81;;;26.60;52.52
18137;BME280;9194;42.632;23.298;2023-07-31T12:56:27;92235.06;;;27.15;52.79
18137;BME280;9194;42.632;23.298;2023-07-31T13:01:28;92231.91;;;27.58;51.86
18137;BME280;9194;42.632;23.298;2023-07-31T13:06:29;92230.00;;;27.70;51.05
18137;BME280;9194;42.632;23.298;2023-07-31T13:11:30;92229.47;;;26.95;53.19
18137;BME280;9194;42.632;23.298;2023-07-31T13:16:32;92236.16;;;27.02;53.63
18137;BME280;9194;42.632;23.298;2023-07-31T13:21:33;92241.53;;;26.06;54.03
18137;BME280;9194;42.632;23.298;2023-07-31T13:26:36;92235.94;;;26.74;52.07
18137;BME280;9194;42.632;23.298;2023-07-31T13:31:38;92231.97;;;27.25;51.18
18137;BME280;9194;42.632;23.298;2023-07-31T13:36:39;92238.47;;;26.91;53.64
18137;BME280;9194;42.632;23.298;2023-07-31T13:41:40;92242.13;;;27.31;49.55
18137;BME280;9194;42.632;23.298;2023-07-31T13:46:41;92236.56;;;26.58;53.15
18137;BME280;9194;42.632;23.298;2023-07-31T13:51:43;92237.28;;;26.80;50.54
18137;BME280;9194;42.632;23.298;2023-07-31T13:56:44;92233.59;;;27.05;48.68
18137;BME280;9194;42.632;23.298;2023-07-31T14:01:46;92236.66;;;26.83;48.96
18137;BME280;9194;42.632;23.298;2023-07-31T14:06:47;92222.53;;;26.29;50.59
18137;BME280;9194;42.632;23.298;2023-07-31T14:11:51;92223.75;;;26.52;50.94
18137;BME280;9194;42.632;23.298;2023-07-31T14:16:52;92221.22;;;26.55;51.82
18137;BME280;9194;42.632;23.298;2023-07-31T14:21:53;92222.47;;;26.70;52.39
18137;BME280;9194;42.632;23.298;2023-07-31T14:26:54;92218.56;;;26.35;52.96
18137;BME280;9194;42.632;23.298;2023-07-31T14:31:56;92226.56;;;26.35;53.52
18137;BME280;9194;42.632;23.298;2023-07-31T14:36:57;92222.72;;;26.44;53.15
18137;BME280;9194;42.632;23.298;2023-07-31T14:41:58;92220.59;;;26.38;52.52
18137;BME280;9194;42.632;23.298;2023-07-31T14:46:59;92232.53;;;26.11;53.14
18137;BME280;9194;42.632;23.298;2023-07-31T14:52:01;92228.69;;;25.79;54.21
18137;BME280;9194;42.632;23.298;2023-07-31T14:57:02;92232.97;;;25.71;57.36
18137;BME280;9194;42.632;23.298;2023-07-31T15:02:03;92238.31;;;25.71;55.38
18137;BME280;9194;42.632;23.298;2023-07-31T15:07:05;92231.94;;;25.55;56.13
18137;BME280;9194;42.632;23.298;2023-07-31T15:12:07;92238.69;;;25.23;56.40
18137;BME280;9194;42.632;23.298;2023-07-31T15:17:08;92229.13;;;25.52;57.39
18137;BME280;9194;42.632;23.298;2023-07-31T15:22:10;92236.94;;;25.27;60.85
18137;BME280;9194;42.632;23.298;2023-07-31T15:27:11;92238.22;;;25.59;60.07
18137;BME280;9194;42.632;23.298;2023-07-31T15:32:12;92238.81;;;25.65;60.58
18137;BME280;9194;42.632;23.298;2023-07-31T15:37:13;92251.00;;;25.36;61.67
18137;BME280;9194;42.632;23.298;2023-07-31T15:42:15;92252.34;;;25.13;62.86
18137;BME280;9194;42.632;23.298;2023-07-31T15:47:16;92249.59;;;24.84;62.74
18137;BME280;9194;42.632;23.298;2023-07-31T15:52:17;92257.13;;;24.65;62.37
18137;BME280;9194;42.632;23.298;2023-07-31T15:57:18;92262.81;;;24.46;63.12
18137;BME280;9194;42.632;23.298;2023-07-31T16:02:20;92257.50;;;24.37;63.63
18137;BME280;9194;42.632;23.298;2023-07-31T16:07:21;92250.47;;;24.33;66.02
18137;BME280;9194;42.632;23.298;2023-07-31T16:12:24;92257.44;;;23.94;69.08
18137;BME280;9194;42.632;23.298;2023-07-31T16:17:25;92266.44;;;23.59;72.56
18137;BME280;9194;42.632;23.298;2023-07-31T16:22:27;92268.56;;;23.40;72.67
18137;BME280;9194;42.632;23.298;2023-07-31T16:27:28;92271.63;;;23.24;73.73
18137;BME280;9194;42.632;23.298;2023-07-31T16:32:29;92265.84;;;23.70;71.66
18137;BME280;9194;42.632;23.298;2023-07-31T16:37:30;92281.69;;;23.84;71.66
18137;BME280;9194;42.632;23.298;2023-07-31T16:42:32;92281.06;;;23.87;72.88
18137;BME280;9194;42.632;23.298;2023-07-31T16:47:33;92293.00;;;24.15;71.45
18137;BME280;9194;42.632;23.298;2023-07-31T16:52:34;92281.03;;;23.70;72.01
18137;BME280;9194;42.632;23.298;2023-07-31T16:57:35;92288.22;;;23.78;71.10
18137;BME280;9194;42.632;23.298;2023-07-31T17:02:37;92293.66;;;23.56;71.16
18137;BME280;9194;42.632;23.298;2023-07-31T17:07:38;92297.84;;;24.05;68.33
18137;BME280;9194;42.632;23.298;2023-07-31T17:12:39;92302.31;;;23.39;71.89
18137;BME280;9194;42.632;23.298;2023-07-31T17:17:40;92300.81;;;23.16;71.35
18137;BME280;9194;42.632;23.298;2023-07-31T17:22:41;92314.28;;;22.88;74.80
18137;BME280;9194;42.632;23.298;2023-07-31T17:27:45;92309.72;;;23.11;74.86
18137;BME280;9194;42.632;23.298;2023-07-31T17:32:46;92315.94;;;22.62;77.02
18137;BME280;9194;42.632;23.298;2023-07-31T17:37:47;92315.81;;;22.45;78.82
18137;BME280;9194;42.632;23.298;2023-07-31T17:42:49;92328.13;;;22.27;79.74
18137;BME280;9194;42.632;23.298;2023-07-31T17:47:50;92320.16;;;22.05;80.85
18137;BME280;9194;42.632;23.298;2023-07-31T17:52:52;92327.69;;;22.70;75.54
18137;BME280;9194;42.632;23.298;2023-07-31T17:57:53;92331.72;;;22.09;78.97
18137;BME280;9194;42.632;23.298;2023-07-31T18:02:54;92335.38;;;21.86;80.70
18137;BME280;9194;42.632;23.298;2023-07-31T18:07:58;92343.84;;;21.60;83.98
18137;BME280;9194;42.632;23.298;2023-07-31T18:13:00;92353.81;;;21.50;86.28
18137;BME280;9194;42.632;23.298;2023-07-31T18:18:01;92351.34;;;21.26;89.56
18137;BME280;9194;42.632;23.298;2023-07-31T18:23:02;92351.25;;;21.17;90.73
18137;BME280;9194;42.632;23.298;2023-07-31T18:28:03;92351.84;;;21.28;89.45
18137;BME280;9194;42.632;23.298;2023-07-31T18:33:04;92360.09;;;20.94;92.22
18137;BME280;9194;42.632;23.298;2023-07-31T18:38:06;92370.03;;;21.02;92.71
18137;BME280;9194;42.632;23.298;2023-07-31T18:43:10;92376.00;;;20.75;92.63
18137;BME280;9194;42.632;23.298;2023-07-31T18:48:11;92382.72;;;20.68;92.78
18137;BME280;9194;42.632;23.298;2023-07-31T18:53:13;92380.09;;;20.68;94.00
18137;BME280;9194;42.632;23.298;2023-07-31T18:58:14;92382.03;;;20.62;93.10
18137;BME280;9194;42.632;23.298;2023-07-31T19:03:15;92379.63;;;20.47;93.09
18137;BME280;9194;42.632;23.298;2023-07-31T19:08:17;92381.03;;;20.58;93.61
18137;BME280;9194;42.632;23.298;2023-07-31T19:13:18;92388.78;;;20.36;96.36
18137;BME280;9194;42.632;23.298;2023-07-31T19:18:19;92389.31;;;20.33;96.76
18137;BME280;9194;42.632;23.298;2023-07-31T19:23:21;92385.06;;;20.37;96.26
18137;BME280;9194;42.632;23.298;2023-07-31T19:28:22;92387.78;;;20.32;97.64
18137;BME280;9194;42.632;23.298;2023-07-31T19:33:23;92388.25;;;20.53;96.79
18137;BME280;9194;42.632;23.298;2023-07-31T19:38:25;92393.78;;;20.37;97.21
18137;BME280;9194;42.632;23.298;2023-07-31T19:43:26;92390.19;;;20.47;97.43
18137;BME280;9194;42.632;23.298;2023-07-31T19:48:27;92391.25;;;20.46;97.16
18137;BME280;9194;42.632;23.298;2023-07-31T19:53:29;92392.25;;;20.50;97.79
18137;BME280;9194;42.632;23.298;2023-07-31T19:58:30;92400.06;;;20.60;98.57
18137;BME280;9194;42.632;23.298;2023-07-31T20:03:32;92396.03;;;20.63;97.64
18137;BME280;9194;42.632;23.298;2023-07-31T20:08:33;92403.41;;;20.84;95.29
18137;BME280;9194;42.632;23.298;2023-07-31T20:13:34;92403.34;;;20.52;100.00
18137;BME280;9194;42.632;23.298;2023-07-31T20:18:35;92391.69;;;20.72;97.89
18137;BME280;9194;42.632;23.298;2023-07-31T20:23:40;92388.84;;;21.01;97.69
18137;BME280;9194;42.632;23.298;2023-07-31T20:28:41;92390.41;;;21.02;97.17
18137;BME280;9194;42.632;23.298;2023-07-31T20:33:43;92394.78;;;20.60;100.00
18137;BME280;9194;42.632;23.298;2023-07-31T20:38:44;92393.19;;;20.78;98.36
18137;BME280;9194;42.632;23.298;2023-07-31T20:43:45;92398.69;;;20.63;100.00
18137;BME280;9194;42.632;23.298;2023-07-31T20:48:46;92397.97;;;20.20;100.00
18137;BME280;9194;42.632;23.298;2023-07-31T20:53:48;92407.06;;;20.32;100.00
18137;BME280;9194;42.632;23.298;2023-07-31T20:58:52;92417.84;;;20.36;100.00
18137;BME280;9194;42.632;23.298;2023-07-31T21:03:53;92406.84;;;20.47;99.83
18137;BME280;9194;42.632;23.298;2023-07-31T21:08:54;92417.13;;;20.68;99.45
18137;BME280;9194;42.632;23.298;2023-07-31T21:13:56;92408.47;;;20.81;97.74
18137;BME280;9194;42.632;23.298;2023-07-31T21:18:58;92416.19;;;20.77;98.76
18137;BME280;9194;42.632;23.298;2023-07-31T21:23:59;92419.44;;;20.37;100.00
18137;BME280;9194;42.632;23.298;2023-07-31T21:29:01;92413.66;;;20.30;100.00
18137;BME280;9194;42.632;23.298;2023-07-31T21:34:02;92415.34;;;20.63;100.00
18137;BME280;9194;42.632;23.298;2023-07-31T21:39:03;92408.19;;;20.82;98.73
18137;BME280;9194;42.632;23.298;2023-07-31T21:44:04;92414.00;;;20.47;100.00
18137;BME280;9194;42.632;23.298;2023-07-31T21:49:06;92402.56;;;20.52;99.05
18137;BME280;9194;42.632;23.298;2023-07-31T21:54:07;92407.56;;;20.34;99.96
18137;BME280;9194;42.632;23.298;2023-07-31T21:59:12;92402.59;;;20.28;100.00
18137;BME280;9194;42.632;23.298;2023-07-31T22:04:16;92403.06;;;20.35;100.00
18137;BME280;9194;42.632;23.298;2023-07-31T22:09:17;92406.25;;;19.89;100.00
18137;BME280;9194;42.632;23.298;2023-07-31T22:14:18;92414.97;;;19.90;100.00
18137;BME280;9194;42.632;23.298;2023-07-31T22:19:19;92405.16;;;20.14;100.00
18137;BME280;9194;42.632;23.298;2023-07-31T22:24:21;92409.34;;;19.96;100.00
18137;BME280;9194;42.632;23.298;2023-07-31T22:29:22;92409.44;;;19.86;100.00
18137;BME280;9194;42.632;23.298;2023-07-31T22:34:24;92394.28;;;20.16;100.00
18137;BME280;9194;42.632;23.298;2023-07-31T22:39:25;92391.53;;;20.26;100.00
18137;BME280;9194;42.632;23.298;2023-07-31T22:44:26;92393.84;;;20.32;100.00
18137;BME280;9194;42.632;23.298;2023-07-31T22:49:27;92393.59;;;20.29;100.00
18137;BME280;9194;42.632;23.298;2023-07-31T22:54:31;92378.56;;;20.48;99.25
18137;BME280;9194;42.632;23.298;2023-07-31T22:59:32;92378.38;;;20.02;100.00
18137;BME280;9194;42.632;23.298;2023-07-31T23:04:37;92374.75;;;19.74;100.00
18137;BME280;9194;42.632;23.298;2023-07-31T23:09:38;92359.00;;;20.06;100.00
18137;BME280;9194;42.632;23.298;2023-07-31T23:14:39;92355.13;;;19.80;100.00
18137;BME280;9194;42.632;23.298;2023-07-31T23:19:44;92360.34;;;20.04;100.00
18137;BME280;9194;42.632;23.298;2023-07-31T23:24:45;92361.09;;;19.67;100.00
18137;BME280;9194;42.632;23.298;2023-07-31T23:29:46;92354.91;;;19.53;100.00
18137;BME280;9194;42.632;23.298;2023-07-31T23:34:47;92354.78;;;19.15;100.00
18137;BME280;9194;42.632;23.298;2023-07-31T23:39:48;92359.03;;;19.11;100.00
18137;BME280;9194;42.632;23.298;2023-07-31T23:44:50;92347.53;;;19.02;100.00
18137;BME280;9194;42.632;23.298;2023-07-31T23:49:51;92345.53;;;18.89;100.00
18137;BME280;9194;42.632;23.298;2023-07-31T23:54:52;92340.91;;;18.76;100.00
18137;BME280;9194;42.632;23.298;2023-07-31T23:59:54;92338.97;;;18.58;100.00
